sensor_id;sensor_type;location;lat;lon;timestamp;P1;durP1;ratioP1;P2;durP2;ratioP2
59442;SDS011;45247;47.466;19.004;2022-11-12T00:01:13;33.65;;;19.27;;
59442;SDS011;45247;47.466;19.004;2022-11-12T00:03:41;29.20;;;19.15;;
59442;SDS011;45247;47.466;19.004;2022-11-12T00:06:09;33.35;;;18.63;;
59442;SDS011;45247;47.466;19.004;2022-11-12T00:08:38;37.45;;;19.63;;
59442;SDS011;45247;47.466;19.004;2022-11-12T00:11:06;34.15;;;18.80;;
59442;SDS011;45247;47.466;19.004;2022-11-12T00:13:34;33.40;;;18.15;;
59442;SDS011;45247;47.466;19.004;2022-11-12T00:16:03;33.92;;;18.00;;
59442;SDS011;45247;47.466;19.004;2022-11-12T00:18:32;31.88;;;18.38;;
59442;SDS011;45247;47.466;19.004;2022-11-12T00:21:00;31.20;;;17.63;;
59442;SDS011;45247;47.466;19.004;2022-11-12T00:23:28;28.13;;;16.67;;
59442;SDS011;45247;47.466;19.004;2022-11-12T00:26:00;30.77;;;18.10;;
59442;SDS011;45247;47.466;19.004;2022-11-12T00:28:28;30.75;;;17.20;;
59442;SDS011;45247;47.466;19.004;2022-11-12T00:31:07;30.77;;;17.27;;
59442;SDS011;45247;47.466;19.004;2022-11-12T00:33:39;34.50;;;18.45;;
59442;SDS011;45247;47.466;19.004;2022-11-12T00:36:08;37.50;;;18.60;;
59442;SDS011;45247;47.466;19.004;2022-11-12T00:38:37;34.70;;;17.42;;
59442;SDS011;45247;47.466;19.004;2022-11-12T00:41:06;37.72;;;18.42;;
59442;SDS011;45247;47.466;19.004;2022-11-12T00:43:34;32.17;;;18.70;;
59442;SDS011;45247;47.466;19.004;2022-11-12T00:46:03;37.75;;;18.15;;
59442;SDS011;45247;47.466;19.004;2022-11-12T00:48:31;34.33;;;18.52;;
59442;SDS011;45247;47.466;19.004;2022-11-12T00:50:59;34.53;;;18.35;;
59442;SDS011;45247;47.466;19.004;2022-11-12T00:53:28;33.55;;;18.08;;
59442;SDS011;45247;47.466;19.004;2022-11-12T00:55:59;32.38;;;18.27;;
59442;SDS011;45247;47.466;19.004;2022-11-12T00:58:30;29.30;;;18.52;;
59442;SDS011;45247;47.466;19.004;2022-11-12T01:01:04;34.53;;;18.13;;
59442;SDS011;45247;47.466;19.004;2022-11-12T01:03:34;26.52;;;15.75;;
59442;SDS011;45247;47.466;19.004;2022-11-12T01:06:03;26.52;;;17.02;;
59442;SDS011;45247;47.466;19.004;2022-11-12T01:08:32;28.52;;;16.85;;
59442;SDS011;45247;47.466;19.004;2022-11-12T01:11:07;27.02;;;16.35;;
59442;SDS011;45247;47.466;19.004;2022-11-12T01:13:39;26.58;;;16.50;;
59442;SDS011;45247;47.466;19.004;2022-11-12T01:16:10;27.48;;;16.00;;
59442;SDS011;45247;47.466;19.004;2022-11-12T01:18:40;32.85;;;18.15;;
59442;SDS011;45247;47.466;19.004;2022-11-12T01:21:09;29.35;;;18.02;;
59442;SDS011;45247;47.466;19.004;2022-11-12T01:23:38;26.33;;;16.25;;
59442;SDS011;45247;47.466;19.004;2022-11-12T01:26:08;28.00;;;16.65;;
59442;SDS011;45247;47.466;19.004;2022-11-12T01:28:39;23.50;;;14.10;;
59442;SDS011;45247;47.466;19.004;2022-11-12T01:31:11;27.42;;;16.38;;
59442;SDS011;45247;47.466;19.004;2022-11-12T01:33:42;24.55;;;15.05;;
59442;SDS011;45247;47.466;19.004;2022-11-12T01:36:11;24.27;;;14.40;;
59442;SDS011;45247;47.466;19.004;2022-11-12T01:38:41;29.80;;;16.55;;
59442;SDS011;45247;47.466;19.004;2022-11-12T01:41:11;34.05;;;19.00;;
59442;SDS011;45247;47.466;19.004;2022-11-12T01:43:42;32.22;;;19.83;;
59442;SDS011;45247;47.466;19.004;2022-11-12T01:46:13;33.25;;;19.15;;
59442;SDS011;45247;47.466;19.004;2022-11-12T01:48:47;39.65;;;19.20;;
59442;SDS011;45247;47.466;19.004;2022-11-12T01:51:19;34.17;;;20.30;;
59442;SDS011;45247;47.466;19.004;2022-11-12T01:53:52;33.55;;;18.60;;
59442;SDS011;45247;47.466;19.004;2022-11-12T01:56:25;41.13;;;21.50;;
59442;SDS011;45247;47.466;19.004;2022-11-12T01:58:59;33.58;;;19.55;;
59442;SDS011;45247;47.466;19.004;2022-11-12T02:01:30;29.98;;;17.02;;
59442;SDS011;45247;47.466;19.004;2022-11-12T02:03:59;30.42;;;19.25;;
59442;SDS011;45247;47.466;19.004;2022-11-12T02:06:27;34.08;;;19.15;;
59442;SDS011;45247;47.466;19.004;2022-11-12T02:08:55;33.03;;;19.73;;
59442;SDS011;45247;47.466;19.004;2022-11-12T02:11:24;34.15;;;19.17;;
59442;SDS011;45247;47.466;19.004;2022-11-12T02:13:52;33.38;;;19.98;;
59442;SDS011;45247;47.466;19.004;2022-11-12T02:16:31;40.88;;;21.75;;
59442;SDS011;45247;47.466;19.004;2022-11-12T02:19:03;38.30;;;21.60;;
59442;SDS011;45247;47.466;19.004;2022-11-12T02:21:33;35.95;;;20.52;;
59442;SDS011;45247;47.466;19.004;2022-11-12T02:24:02;36.88;;;20.83;;
59442;SDS011;45247;47.466;19.004;2022-11-12T02:26:33;35.58;;;21.50;;
59442;SDS011;45247;47.466;19.004;2022-11-12T02:29:03;37.28;;;20.63;;
59442;SDS011;45247;47.466;19.004;2022-11-12T02:31:31;39.63;;;21.95;;
59442;SDS011;45247;47.466;19.004;2022-11-12T02:33:59;35.47;;;20.48;;
59442;SDS011;45247;47.466;19.004;2022-11-12T02:36:27;37.83;;;22.35;;
59442;SDS011;45247;47.466;19.004;2022-11-12T02:38:57;32.97;;;20.05;;
59442;SDS011;45247;47.466;19.004;2022-11-12T02:41:25;42.65;;;22.52;;
59442;SDS011;45247;47.466;19.004;2022-11-12T02:43:53;38.90;;;21.05;;
59442;SDS011;45247;47.466;19.004;2022-11-12T02:46:21;36.42;;;19.63;;
59442;SDS011;45247;47.466;19.004;2022-11-12T02:48:50;37.40;;;22.67;;
59442;SDS011;45247;47.466;19.004;2022-11-12T02:51:18;30.63;;;18.92;;
59442;SDS011;45247;47.466;19.004;2022-11-12T02:53:46;34.17;;;19.23;;
59442;SDS011;45247;47.466;19.004;2022-11-12T02:56:16;33.90;;;20.13;;
59442;SDS011;45247;47.466;19.004;2022-11-12T02:58:44;29.85;;;17.00;;
59442;SDS011;45247;47.466;19.004;2022-11-12T03:01:12;29.85;;;19.05;;
59442;SDS011;45247;47.466;19.004;2022-11-12T03:03:40;34.30;;;19.92;;
59442;SDS011;45247;47.466;19.004;2022-11-12T03:06:08;43.40;;;19.63;;
59442;SDS011;45247;47.466;19.004;2022-11-12T03:08:36;36.38;;;20.40;;
59442;SDS011;45247;47.466;19.004;2022-11-12T03:11:05;32.33;;;19.08;;
59442;SDS011;45247;47.466;19.004;2022-11-12T03:13:35;37.70;;;22.13;;
59442;SDS011;45247;47.466;19.004;2022-11-12T03:16:04;36.45;;;20.23;;
59442;SDS011;45247;47.466;19.004;2022-11-12T03:18:32;35.55;;;19.88;;
59442;SDS011;45247;47.466;19.004;2022-11-12T03:21:00;30.88;;;20.08;;
59442;SDS011;45247;47.466;19.004;2022-11-12T03:23:28;39.45;;;21.63;;
59442;SDS011;45247;47.466;19.004;2022-11-12T03:25:56;37.67;;;21.85;;
59442;SDS011;45247;47.466;19.004;2022-11-12T03:28:24;31.48;;;19.70;;
59442;SDS011;45247;47.466;19.004;2022-11-12T03:30:56;29.48;;;17.65;;
59442;SDS011;45247;47.466;19.004;2022-11-12T03:35:53;36.58;;;20.10;;
59442;SDS011;45247;47.466;19.004;2022-11-12T03:38:22;37.65;;;20.75;;
59442;SDS011;45247;47.466;19.004;2022-11-12T03:40:50;31.27;;;19.98;;
59442;SDS011;45247;47.466;19.004;2022-11-12T03:43:18;32.22;;;19.27;;
59442;SDS011;45247;47.466;19.004;2022-11-12T03:45:46;27.13;;;17.50;;
59442;SDS011;45247;47.466;19.004;2022-11-12T03:48:16;36.75;;;21.00;;
59442;SDS011;45247;47.466;19.004;2022-11-12T03:50:44;36.90;;;21.95;;
59442;SDS011;45247;47.466;19.004;2022-11-12T03:53:12;36.97;;;20.98;;
59442;SDS011;45247;47.466;19.004;2022-11-12T03:55:40;34.05;;;21.33;;
59442;SDS011;45247;47.466;19.004;2022-11-12T03:58:08;38.92;;;22.80;;
59442;SDS011;45247;47.466;19.004;2022-11-12T04:00:36;37.45;;;21.10;;
59442;SDS011;45247;47.466;19.004;2022-11-12T04:03:04;35.95;;;20.30;;
59442;SDS011;45247;47.466;19.004;2022-11-12T04:05:34;39.85;;;20.55;;
59442;SDS011;45247;47.466;19.004;2022-11-12T04:08:20;36.78;;;20.00;;
59442;SDS011;45247;47.466;19.004;2022-11-12T04:11:05;35.35;;;19.23;;
59442;SDS011;45247;47.466;19.004;2022-11-12T04:13:35;36.92;;;21.33;;
59442;SDS011;45247;47.466;19.004;2022-11-12T04:16:04;42.72;;;23.70;;
59442;SDS011;45247;47.466;19.004;2022-11-12T04:18:52;42.60;;;23.90;;
59442;SDS011;45247;47.466;19.004;2022-11-12T04:21:40;31.25;;;20.83;;
59442;SDS011;45247;47.466;19.004;2022-11-12T04:24:21;31.52;;;20.08;;
59442;SDS011;45247;47.466;19.004;2022-11-12T04:27:12;35.67;;;21.58;;
59442;SDS011;45247;47.466;19.004;2022-11-12T04:29:41;36.05;;;23.23;;
59442;SDS011;45247;47.466;19.004;2022-11-12T04:32:27;40.60;;;23.67;;
59442;SDS011;45247;47.466;19.004;2022-11-12T04:34:56;41.17;;;23.40;;
59442;SDS011;45247;47.466;19.004;2022-11-12T04:37:27;40.85;;;22.45;;
59442;SDS011;45247;47.466;19.004;2022-11-12T04:40:10;36.17;;;21.35;;
59442;SDS011;45247;47.466;19.004;2022-11-12T04:42:56;40.30;;;20.05;;
59442;SDS011;45247;47.466;19.004;2022-11-12T04:45:42;38.58;;;20.42;;
59442;SDS011;45247;47.466;19.004;2022-11-12T04:48:12;38.05;;;20.60;;
59442;SDS011;45247;47.466;19.004;2022-11-12T04:50:41;38.25;;;22.45;;
59442;SDS011;45247;47.466;19.004;2022-11-12T04:53:12;36.20;;;21.90;;
59442;SDS011;45247;47.466;19.004;2022-11-12T04:55:40;32.42;;;21.38;;
59442;SDS011;45247;47.466;19.004;2022-11-12T04:58:08;45.10;;;24.88;;
59442;SDS011;45247;47.466;19.004;2022-11-12T05:00:37;39.92;;;23.00;;
59442;SDS011;45247;47.466;19.004;2022-11-12T05:03:05;41.95;;;23.58;;
59442;SDS011;45247;47.466;19.004;2022-11-12T05:05:33;36.70;;;21.08;;
59442;SDS011;45247;47.466;19.004;2022-11-12T05:08:01;33.88;;;20.45;;
59442;SDS011;45247;47.466;19.004;2022-11-12T05:10:30;37.53;;;21.73;;
59442;SDS011;45247;47.466;19.004;2022-11-12T05:12:59;39.25;;;22.73;;
59442;SDS011;45247;47.466;19.004;2022-11-12T05:15:27;36.10;;;20.65;;
59442;SDS011;45247;47.466;19.004;2022-11-12T05:17:55;33.15;;;20.50;;
59442;SDS011;45247;47.466;19.004;2022-11-12T05:20:23;44.97;;;23.70;;
59442;SDS011;45247;47.466;19.004;2022-11-12T05:22:51;39.45;;;23.23;;
59442;SDS011;45247;47.466;19.004;2022-11-12T05:25:34;35.83;;;20.58;;
59442;SDS011;45247;47.466;19.004;2022-11-12T05:28:03;37.25;;;22.35;;
59442;SDS011;45247;47.466;19.004;2022-11-12T05:30:32;40.15;;;23.13;;
59442;SDS011;45247;47.466;19.004;2022-11-12T05:33:01;44.28;;;23.13;;
59442;SDS011;45247;47.466;19.004;2022-11-12T05:35:29;53.72;;;26.02;;
59442;SDS011;45247;47.466;19.004;2022-11-12T05:37:57;47.15;;;24.15;;
59442;SDS011;45247;47.466;19.004;2022-11-12T05:40:25;49.83;;;26.35;;
59442;SDS011;45247;47.466;19.004;2022-11-12T05:42:55;45.15;;;26.40;;
59442;SDS011;45247;47.466;19.004;2022-11-12T05:45:23;43.20;;;25.52;;
59442;SDS011;45247;47.466;19.004;2022-11-12T05:47:51;42.17;;;23.05;;
59442;SDS011;45247;47.466;19.004;2022-11-12T05:50:19;39.53;;;22.90;;
59442;SDS011;45247;47.466;19.004;2022-11-12T05:52:47;49.60;;;26.77;;
59442;SDS011;45247;47.466;19.004;2022-11-12T05:55:15;43.00;;;23.48;;
59442;SDS011;45247;47.466;19.004;2022-11-12T05:57:43;37.70;;;22.27;;
59442;SDS011;45247;47.466;19.004;2022-11-12T06:00:13;44.10;;;24.48;;
59442;SDS011;45247;47.466;19.004;2022-11-12T06:02:42;39.17;;;23.13;;
59442;SDS011;45247;47.466;19.004;2022-11-12T06:05:10;43.00;;;23.30;;
59442;SDS011;45247;47.466;19.004;2022-11-12T06:07:38;40.00;;;23.83;;
59442;SDS011;45247;47.466;19.004;2022-11-12T06:10:07;41.65;;;23.98;;
59442;SDS011;45247;47.466;19.004;2022-11-12T06:12:45;37.90;;;23.40;;
59442;SDS011;45247;47.466;19.004;2022-11-12T06:15:15;38.80;;;23.70;;
59442;SDS011;45247;47.466;19.004;2022-11-12T06:17:43;45.92;;;25.27;;
59442;SDS011;45247;47.466;19.004;2022-11-12T06:20:11;43.63;;;23.88;;
59442;SDS011;45247;47.466;19.004;2022-11-12T06:22:39;48.00;;;25.63;;
59442;SDS011;45247;47.466;19.004;2022-11-12T06:25:07;49.13;;;26.40;;
59442;SDS011;45247;47.466;19.004;2022-11-12T06:27:35;52.60;;;30.67;;
59442;SDS011;45247;47.466;19.004;2022-11-12T06:30:04;48.70;;;26.50;;
59442;SDS011;45247;47.466;19.004;2022-11-12T06:32:35;51.63;;;27.20;;
59442;SDS011;45247;47.466;19.004;2022-11-12T06:35:03;51.47;;;28.92;;
59442;SDS011;45247;47.466;19.004;2022-11-12T06:37:31;62.95;;;29.90;;
59442;SDS011;45247;47.466;19.004;2022-11-12T06:39:59;58.95;;;31.20;;
59442;SDS011;45247;47.466;19.004;2022-11-12T06:42:27;55.33;;;31.23;;
59442;SDS011;45247;47.466;19.004;2022-11-12T06:44:55;53.22;;;29.58;;
59442;SDS011;45247;47.466;19.004;2022-11-12T06:47:23;58.17;;;30.27;;
59442;SDS011;45247;47.466;19.004;2022-11-12T06:49:53;57.53;;;30.25;;
59442;SDS011;45247;47.466;19.004;2022-11-12T06:52:21;50.88;;;29.30;;
59442;SDS011;45247;47.466;19.004;2022-11-12T06:54:49;47.88;;;28.77;;
59442;SDS011;45247;47.466;19.004;2022-11-12T06:57:18;49.78;;;27.38;;
59442;SDS011;45247;47.466;19.004;2022-11-12T06:59:46;56.45;;;28.05;;
59442;SDS011;45247;47.466;19.004;2022-11-12T07:02:14;49.28;;;29.80;;
59442;SDS011;45247;47.466;19.004;2022-11-12T07:04:42;46.40;;;27.67;;
59442;SDS011;45247;47.466;19.004;2022-11-12T07:07:11;51.60;;;28.27;;
59442;SDS011;45247;47.466;19.004;2022-11-12T07:09:40;53.55;;;28.98;;
59442;SDS011;45247;47.466;19.004;2022-11-12T07:12:08;50.60;;;27.70;;
59442;SDS011;45247;47.466;19.004;2022-11-12T07:14:36;49.55;;;27.95;;
59442;SDS011;45247;47.466;19.004;2022-11-12T07:17:04;46.47;;;27.55;;
59442;SDS011;45247;47.466;19.004;2022-11-12T07:19:35;44.20;;;25.55;;
59442;SDS011;45247;47.466;19.004;2022-11-12T07:22:03;45.67;;;26.40;;
59442;SDS011;45247;47.466;19.004;2022-11-12T07:24:33;52.20;;;26.60;;
59442;SDS011;45247;47.466;19.004;2022-11-12T07:27:01;47.90;;;26.13;;
59442;SDS011;45247;47.466;19.004;2022-11-12T07:29:29;46.65;;;26.05;;
59442;SDS011;45247;47.466;19.004;2022-11-12T07:32:13;48.53;;;24.90;;
59442;SDS011;45247;47.466;19.004;2022-11-12T07:34:41;44.85;;;24.90;;
59442;SDS011;45247;47.466;19.004;2022-11-12T07:37:09;49.30;;;25.67;;
59442;SDS011;45247;47.466;19.004;2022-11-12T07:39:39;41.45;;;23.95;;
59442;SDS011;45247;47.466;19.004;2022-11-12T07:42:07;48.15;;;25.40;;
59442;SDS011;45247;47.466;19.004;2022-11-12T07:44:35;48.15;;;24.77;;
59442;SDS011;45247;47.466;19.004;2022-11-12T07:47:03;47.03;;;27.02;;
59442;SDS011;45247;47.466;19.004;2022-11-12T07:49:31;49.30;;;27.90;;
59442;SDS011;45247;47.466;19.004;2022-11-12T07:51:59;47.72;;;26.23;;
59442;SDS011;45247;47.466;19.004;2022-11-12T07:54:27;49.00;;;25.98;;
59442;SDS011;45247;47.466;19.004;2022-11-12T07:56:57;48.15;;;27.17;;
59442;SDS011;45247;47.466;19.004;2022-11-12T07:59:25;47.97;;;24.35;;
59442;SDS011;45247;47.466;19.004;2022-11-12T08:01:53;41.30;;;24.20;;
59442;SDS011;45247;47.466;19.004;2022-11-12T08:04:21;47.50;;;26.52;;
59442;SDS011;45247;47.466;19.004;2022-11-12T08:06:49;45.85;;;25.63;;
59442;SDS011;45247;47.466;19.004;2022-11-12T08:09:18;49.17;;;26.55;;
59442;SDS011;45247;47.466;19.004;2022-11-12T08:11:46;47.25;;;25.38;;
59442;SDS011;45247;47.466;19.004;2022-11-12T08:14:15;48.90;;;25.50;;
59442;SDS011;45247;47.466;19.004;2022-11-12T08:16:43;45.08;;;25.63;;
59442;SDS011;45247;47.466;19.004;2022-11-12T08:19:12;46.75;;;26.17;;
59442;SDS011;45247;47.466;19.004;2022-11-12T08:21:40;54.78;;;28.73;;
59442;SDS011;45247;47.466;19.004;2022-11-12T08:24:08;48.60;;;27.67;;
59442;SDS011;45247;47.466;19.004;2022-11-12T08:26:36;48.55;;;28.33;;
59442;SDS011;45247;47.466;19.004;2022-11-12T08:29:04;46.22;;;27.35;;
59442;SDS011;45247;47.466;19.004;2022-11-12T08:31:35;48.17;;;26.55;;
59442;SDS011;45247;47.466;19.004;2022-11-12T08:34:03;50.08;;;26.98;;
59442;SDS011;45247;47.466;19.004;2022-11-12T08:36:43;57.83;;;29.50;;
59442;SDS011;45247;47.466;19.004;2022-11-12T08:39:11;53.95;;;28.35;;
59442;SDS011;45247;47.466;19.004;2022-11-12T08:41:39;56.30;;;28.75;;
59442;SDS011;45247;47.466;19.004;2022-11-12T08:44:07;47.30;;;29.30;;
59442;SDS011;45247;47.466;19.004;2022-11-12T08:46:37;49.50;;;28.00;;
59442;SDS011;45247;47.466;19.004;2022-11-12T08:49:05;45.92;;;26.85;;
59442;SDS011;45247;47.466;19.004;2022-11-12T08:51:33;47.58;;;28.80;;
59442;SDS011;45247;47.466;19.004;2022-11-12T08:54:01;48.90;;;29.70;;
59442;SDS011;45247;47.466;19.004;2022-11-12T08:56:29;55.70;;;29.70;;
59442;SDS011;45247;47.466;19.004;2022-11-12T08:58:57;51.20;;;28.80;;
59442;SDS011;45247;47.466;19.004;2022-11-12T09:01:31;50.90;;;28.50;;
59442;SDS011;45247;47.466;19.004;2022-11-12T09:04:01;50.83;;;28.40;;
59442;SDS011;45247;47.466;19.004;2022-11-12T09:06:29;57.15;;;31.20;;
59442;SDS011;45247;47.466;19.004;2022-11-12T09:08:58;57.88;;;30.35;;
59442;SDS011;45247;47.466;19.004;2022-11-12T09:11:26;61.35;;;31.85;;
59442;SDS011;45247;47.466;19.004;2022-11-12T09:13:54;55.80;;;28.73;;
59442;SDS011;45247;47.466;19.004;2022-11-12T09:16:22;61.45;;;30.90;;
59442;SDS011;45247;47.466;19.004;2022-11-12T09:18:50;55.90;;;29.25;;
59442;SDS011;45247;47.466;19.004;2022-11-12T09:21:20;55.40;;;29.35;;
59442;SDS011;45247;47.466;19.004;2022-11-12T09:23:50;56.08;;;29.88;;
59442;SDS011;45247;47.466;19.004;2022-11-12T09:26:18;57.47;;;29.92;;
59442;SDS011;45247;47.466;19.004;2022-11-12T09:28:46;52.08;;;29.55;;
59442;SDS011;45247;47.466;19.004;2022-11-12T09:31:14;48.85;;;27.73;;
59442;SDS011;45247;47.466;19.004;2022-11-12T09:33:42;54.75;;;29.50;;
59442;SDS011;45247;47.466;19.004;2022-11-12T09:36:10;48.97;;;27.98;;
59442;SDS011;45247;47.466;19.004;2022-11-12T09:38:40;55.67;;;29.77;;
59442;SDS011;45247;47.466;19.004;2022-11-12T09:41:12;52.22;;;27.33;;
59442;SDS011;45247;47.466;19.004;2022-11-12T09:43:55;56.72;;;30.10;;
59442;SDS011;45247;47.466;19.004;2022-11-12T09:46:28;57.78;;;28.77;;
59442;SDS011;45247;47.466;19.004;2022-11-12T09:49:04;55.53;;;29.90;;
59442;SDS011;45247;47.466;19.004;2022-11-12T09:51:40;54.85;;;27.73;;
59442;SDS011;45247;47.466;19.004;2022-11-12T09:54:20;54.65;;;29.08;;
59442;SDS011;45247;47.466;19.004;2022-11-12T09:56:50;51.85;;;27.25;;
59442;SDS011;45247;47.466;19.004;2022-11-12T09:59:19;53.15;;;27.88;;
59442;SDS011;45247;47.466;19.004;2022-11-12T10:01:51;52.05;;;28.13;;
59442;SDS011;45247;47.466;19.004;2022-11-12T10:04:33;50.97;;;27.77;;
59442;SDS011;45247;47.466;19.004;2022-11-12T10:07:11;47.40;;;27.98;;
59442;SDS011;45247;47.466;19.004;2022-11-12T10:09:55;50.42;;;27.25;;
59442;SDS011;45247;47.466;19.004;2022-11-12T10:12:31;58.13;;;28.77;;
59442;SDS011;45247;47.466;19.004;2022-11-12T10:18:03;48.45;;;25.83;;
59442;SDS011;45247;47.466;19.004;2022-11-12T10:20:40;51.28;;;29.60;;
59442;SDS011;45247;47.466;19.004;2022-11-12T10:23:16;51.78;;;28.80;;
59442;SDS011;45247;47.466;19.004;2022-11-12T10:25:49;46.90;;;27.48;;
59442;SDS011;45247;47.466;19.004;2022-11-12T10:28:23;44.20;;;27.42;;
59442;SDS011;45247;47.466;19.004;2022-11-12T10:31:04;46.17;;;25.48;;
59442;SDS011;45247;47.466;19.004;2022-11-12T10:33:37;48.67;;;27.52;;
59442;SDS011;45247;47.466;19.004;2022-11-12T10:36:16;47.80;;;27.40;;
59442;SDS011;45247;47.466;19.004;2022-11-12T10:38:51;47.70;;;26.63;;
59442;SDS011;45247;47.466;19.004;2022-11-12T10:41:23;45.30;;;26.40;;
59442;SDS011;45247;47.466;19.004;2022-11-12T10:43:56;47.58;;;27.27;;
59442;SDS011;45247;47.466;19.004;2022-11-12T10:46:26;51.45;;;26.33;;
59442;SDS011;45247;47.466;19.004;2022-11-12T10:48:56;45.00;;;25.98;;
59442;SDS011;45247;47.466;19.004;2022-11-12T10:51:29;42.05;;;23.38;;
59442;SDS011;45247;47.466;19.004;2022-11-12T10:53:58;41.65;;;23.95;;
59442;SDS011;45247;47.466;19.004;2022-11-12T10:56:46;42.83;;;24.08;;
59442;SDS011;45247;47.466;19.004;2022-11-12T10:59:21;46.28;;;25.83;;
59442;SDS011;45247;47.466;19.004;2022-11-12T11:01:53;48.90;;;26.27;;
59442;SDS011;45247;47.466;19.004;2022-11-12T11:04:26;44.20;;;26.27;;
59442;SDS011;45247;47.466;19.004;2022-11-12T11:06:57;45.97;;;25.23;;
59442;SDS011;45247;47.466;19.004;2022-11-12T11:09:27;41.80;;;23.83;;
59442;SDS011;45247;47.466;19.004;2022-11-12T11:11:57;43.40;;;25.15;;
59442;SDS011;45247;47.466;19.004;2022-11-12T11:14:26;51.15;;;26.30;;
59442;SDS011;45247;47.466;19.004;2022-11-12T11:16:58;46.97;;;26.63;;
59442;SDS011;45247;47.466;19.004;2022-11-12T11:19:30;46.15;;;25.88;;
59442;SDS011;45247;47.466;19.004;2022-11-12T11:24:52;43.45;;;25.35;;
59442;SDS011;45247;47.466;19.004;2022-11-12T11:27:40;45.67;;;26.27;;
59442;SDS011;45247;47.466;19.004;2022-11-12T11:30:17;42.22;;;24.85;;
59442;SDS011;45247;47.466;19.004;2022-11-12T11:32:52;42.92;;;25.65;;
59442;SDS011;45247;47.466;19.004;2022-11-12T11:35:46;45.50;;;25.65;;
59442;SDS011;45247;47.466;19.004;2022-11-12T11:38:31;44.70;;;26.52;;
59442;SDS011;45247;47.466;19.004;2022-11-12T11:41:10;45.60;;;26.92;;
59442;SDS011;45247;47.466;19.004;2022-11-12T11:44:12;46.20;;;25.95;;
59442;SDS011;45247;47.466;19.004;2022-11-12T11:46:50;46.50;;;26.45;;
59442;SDS011;45247;47.466;19.004;2022-11-12T11:49:35;46.15;;;25.48;;
59442;SDS011;45247;47.466;19.004;2022-11-12T11:52:44;42.83;;;24.60;;
59442;SDS011;45247;47.466;19.004;2022-11-12T11:55:21;44.65;;;25.40;;
59442;SDS011;45247;47.466;19.004;2022-11-12T11:58:04;43.78;;;26.40;;
59442;SDS011;45247;47.466;19.004;2022-11-12T12:00:46;43.00;;;25.05;;
59442;SDS011;45247;47.466;19.004;2022-11-12T12:03:21;43.88;;;25.13;;
59442;SDS011;45247;47.466;19.004;2022-11-12T12:06:02;41.45;;;24.85;;
59442;SDS011;45247;47.466;19.004;2022-11-12T12:08:48;47.58;;;26.38;;
59442;SDS011;45247;47.466;19.004;2022-11-12T12:11:26;44.10;;;24.85;;
59442;SDS011;45247;47.466;19.004;2022-11-12T12:14:05;40.38;;;24.52;;
59442;SDS011;45247;47.466;19.004;2022-11-12T12:16:58;43.90;;;25.20;;
59442;SDS011;45247;47.466;19.004;2022-11-12T12:19:40;46.92;;;25.85;;
59442;SDS011;45247;47.466;19.004;2022-11-12T12:22:18;45.25;;;25.13;;
59442;SDS011;45247;47.466;19.004;2022-11-12T12:24:51;37.15;;;24.38;;
59442;SDS011;45247;47.466;19.004;2022-11-12T12:27:25;50.42;;;26.15;;
59442;SDS011;45247;47.466;19.004;2022-11-12T12:29:59;45.70;;;25.77;;
59442;SDS011;45247;47.466;19.004;2022-11-12T12:32:32;43.28;;;24.90;;
59442;SDS011;45247;47.466;19.004;2022-11-12T12:35:06;39.75;;;24.35;;
59442;SDS011;45247;47.466;19.004;2022-11-12T12:37:45;45.78;;;23.60;;
59442;SDS011;45247;47.466;19.004;2022-11-12T12:40:18;45.45;;;23.27;;
59442;SDS011;45247;47.466;19.004;2022-11-12T12:42:52;38.05;;;23.00;;
59442;SDS011;45247;47.466;19.004;2022-11-12T12:45:29;39.50;;;23.33;;
59442;SDS011;45247;47.466;19.004;2022-11-12T12:48:06;39.83;;;23.52;;
59442;SDS011;45247;47.466;19.004;2022-11-12T12:50:40;42.95;;;23.65;;
59442;SDS011;45247;47.466;19.004;2022-11-12T12:53:17;43.53;;;23.55;;
59442;SDS011;45247;47.466;19.004;2022-11-12T12:55:58;42.53;;;22.85;;
59442;SDS011;45247;47.466;19.004;2022-11-12T12:58:28;40.85;;;22.38;;
59442;SDS011;45247;47.466;19.004;2022-11-12T13:00:59;40.90;;;23.23;;
59442;SDS011;45247;47.466;19.004;2022-11-12T13:03:50;39.83;;;19.48;;
59442;SDS011;45247;47.466;19.004;2022-11-12T13:06:25;38.28;;;20.65;;
59442;SDS011;45247;47.466;19.004;2022-11-12T13:08:56;42.30;;;21.45;;
59442;SDS011;45247;47.466;19.004;2022-11-12T13:14:49;41.95;;;22.27;;
59442;SDS011;45247;47.466;19.004;2022-11-12T13:17:43;38.80;;;21.80;;
59442;SDS011;45247;47.466;19.004;2022-11-12T13:26:47;37.13;;;19.27;;
59442;SDS011;45247;47.466;19.004;2022-11-12T13:29:22;23.75;;;12.00;;
59442;SDS011;45247;47.466;19.004;2022-11-12T13:37:55;18.15;;;9.02;;
59442;SDS011;45247;47.466;19.004;2022-11-12T13:40:35;22.77;;;9.13;;
59442;SDS011;45247;47.466;19.004;2022-11-12T13:43:09;16.48;;;8.45;;
59442;SDS011;45247;47.466;19.004;2022-11-12T13:45:46;15.43;;;8.15;;
59442;SDS011;45247;47.466;19.004;2022-11-12T13:48:20;14.55;;;8.18;;
59442;SDS011;45247;47.466;19.004;2022-11-12T13:50:53;20.30;;;9.93;;
59442;SDS011;45247;47.466;19.004;2022-11-12T13:53:25;24.95;;;10.68;;
59442;SDS011;45247;47.466;19.004;2022-11-12T13:55:55;16.33;;;10.82;;
59442;SDS011;45247;47.466;19.004;2022-11-12T13:58:27;22.60;;;10.77;;
59442;SDS011;45247;47.466;19.004;2022-11-12T14:00:57;24.45;;;12.45;;
59442;SDS011;45247;47.466;19.004;2022-11-12T14:03:27;19.85;;;10.57;;
59442;SDS011;45247;47.466;19.004;2022-11-12T14:06:00;17.65;;;10.50;;
59442;SDS011;45247;47.466;19.004;2022-11-12T14:08:36;22.33;;;10.88;;
59442;SDS011;45247;47.466;19.004;2022-11-12T14:11:31;17.88;;;9.48;;
59442;SDS011;45247;47.466;19.004;2022-11-12T14:14:10;19.90;;;10.75;;
59442;SDS011;45247;47.466;19.004;2022-11-12T14:16:49;22.63;;;11.02;;
59442;SDS011;45247;47.466;19.004;2022-11-12T14:19:42;20.98;;;11.40;;
59442;SDS011;45247;47.466;19.004;2022-11-12T14:22:21;22.75;;;11.90;;
59442;SDS011;45247;47.466;19.004;2022-11-12T14:24:52;21.83;;;12.45;;
59442;SDS011;45247;47.466;19.004;2022-11-12T14:27:33;24.10;;;13.60;;
59442;SDS011;45247;47.466;19.004;2022-11-12T14:30:13;22.67;;;13.18;;
59442;SDS011;45247;47.466;19.004;2022-11-12T14:32:43;26.50;;;13.93;;
59442;SDS011;45247;47.466;19.004;2022-11-12T14:38:05;29.83;;;16.33;;
59442;SDS011;45247;47.466;19.004;2022-11-12T14:40:43;31.55;;;16.85;;
59442;SDS011;45247;47.466;19.004;2022-11-12T14:46:04;31.73;;;18.05;;
59442;SDS011;45247;47.466;19.004;2022-11-12T14:48:35;33.13;;;18.48;;
59442;SDS011;45247;47.466;19.004;2022-11-12T14:51:14;35.40;;;19.83;;
59442;SDS011;45247;47.466;19.004;2022-11-12T14:53:44;34.92;;;18.48;;
59442;SDS011;45247;47.466;19.004;2022-11-12T14:56:23;39.72;;;19.58;;
59442;SDS011;45247;47.466;19.004;2022-11-12T14:59:00;37.17;;;20.40;;
59442;SDS011;45247;47.466;19.004;2022-11-12T15:01:30;38.55;;;18.88;;
59442;SDS011;45247;47.466;19.004;2022-11-12T15:04:20;32.97;;;18.77;;
59442;SDS011;45247;47.466;19.004;2022-11-12T15:06:51;36.00;;;21.13;;